sensor_id;sensor_type;location;lat;lon;timestamp;P1;durP1;ratioP1;P2;durP2;ratioP2
31438;SDS011;18062;48.872;9.220;2023-02-28T00:01:29;0.60;;;0.50;;
31438;SDS011;18062;48.872;9.220;2023-02-28T00:03:55;0.20;;;0.20;;
31438;SDS011;18062;48.872;9.220;2023-02-28T00:06:21;0.30;;;0.30;;
31438;SDS011;18062;48.872;9.220;2023-02-28T00:08:47;0.40;;;0.40;;
31438;SDS011;18062;48.872;9.220;2023-02-28T00:11:14;0.30;;;0.30;;
31438;SDS011;18062;48.872;9.220;2023-02-28T00:13:41;0.43;;;0.43;;
31438;SDS011;18062;48.872;9.220;2023-02-28T00:16:09;0.30;;;0.30;;
31438;SDS011;18062;48.872;9.220;2023-02-28T00:18:36;0.30;;;0.30;;
31438;SDS011;18062;48.872;9.220;2023-02-28T00:21:03;0.63;;;0.57;;
31438;SDS011;18062;48.872;9.220;2023-02-28T00:23:29;4.13;;;0.50;;
31438;SDS011;18062;48.872;9.220;2023-02-28T00:25:55;0.20;;;0.20;;
31438;SDS011;18062;48.872;9.220;2023-02-28T00:28:21;0.20;;;0.20;;
31438;SDS011;18062;48.872;9.220;2023-02-28T00:30:47;0.50;;;0.50;;
31438;SDS011;18062;48.872;9.220;2023-02-28T00:33:13;0.20;;;0.20;;
31438;SDS011;18062;48.872;9.220;2023-02-28T00:35:39;0.20;;;0.20;;
31438;SDS011;18062;48.872;9.220;2023-02-28T00:38:05;0.43;;;0.43;;
31438;SDS011;18062;48.872;9.220;2023-02-28T00:40:32;0.30;;;0.30;;
31438;SDS011;18062;48.872;9.220;2023-02-28T00:42:58;0.20;;;0.20;;
31438;SDS011;18062;48.872;9.220;2023-02-28T00:45:24;0.30;;;0.30;;
31438;SDS011;18062;48.872;9.220;2023-02-28T00:47:51;0.87;;;0.87;;
31438;SDS011;18062;48.872;9.220;2023-02-28T00:50:17;0.70;;;0.57;;
31438;SDS011;18062;48.872;9.220;2023-02-28T00:52:45;0.20;;;0.20;;
31438;SDS011;18062;48.872;9.220;2023-02-28T00:55:11;0.30;;;0.30;;
31438;SDS011;18062;48.872;9.220;2023-02-28T00:57:37;0.30;;;0.30;;
31438;SDS011;18062;48.872;9.220;2023-02-28T01:00:04;0.40;;;0.40;;
31438;SDS011;18062;48.872;9.220;2023-02-28T01:02:30;0.20;;;0.20;;
31438;SDS011;18062;48.872;9.220;2023-02-28T01:04:56;0.20;;;0.20;;
31438;SDS011;18062;48.872;9.220;2023-02-28T01:07:22;0.87;;;0.87;;
31438;SDS011;18062;48.872;9.220;2023-02-28T01:09:48;0.50;;;0.50;;
31438;SDS011;18062;48.872;9.220;2023-02-28T01:12:15;0.33;;;0.33;;
31438;SDS011;18062;48.872;9.220;2023-02-28T01:14:41;0.60;;;0.60;;
31438;SDS011;18062;48.872;9.220;2023-02-28T01:17:07;0.20;;;0.20;;
31438;SDS011;18062;48.872;9.220;2023-02-28T01:19:33;0.40;;;0.40;;
31438;SDS011;18062;48.872;9.220;2023-02-28T01:22:00;0.37;;;0.37;;
31438;SDS011;18062;48.872;9.220;2023-02-28T01:24:27;0.20;;;0.20;;
31438;SDS011;18062;48.872;9.220;2023-02-28T01:26:53;0.30;;;0.30;;
31438;SDS011;18062;48.872;9.220;2023-02-28T01:29:19;0.73;;;0.40;;
31438;SDS011;18062;48.872;9.220;2023-02-28T01:31:45;0.30;;;0.30;;
31438;SDS011;18062;48.872;9.220;2023-02-28T01:34:11;0.20;;;0.20;;
31438;SDS011;18062;48.872;9.220;2023-02-28T01:36:37;0.30;;;0.30;;
31438;SDS011;18062;48.872;9.220;2023-02-28T01:39:03;0.60;;;0.60;;
31438;SDS011;18062;48.872;9.220;2023-02-28T01:41:30;2.73;;;0.93;;
31438;SDS011;18062;48.872;9.220;2023-02-28T01:43:58;0.37;;;0.37;;
31438;SDS011;18062;48.872;9.220;2023-02-28T01:46:24;0.30;;;0.30;;
31438;SDS011;18062;48.872;9.220;2023-02-28T01:48:55;0.50;;;0.50;;
31438;SDS011;18062;48.872;9.220;2023-02-28T01:51:44;0.20;;;0.20;;
31438;SDS011;18062;48.872;9.220;2023-02-28T01:54:20;0.73;;;0.73;;
31438;SDS011;18062;48.872;9.220;2023-02-28T01:56:50;0.30;;;0.30;;
31438;SDS011;18062;48.872;9.220;2023-02-28T01:59:22;0.30;;;0.30;;
31438;SDS011;18062;48.872;9.220;2023-02-28T02:01:52;0.37;;;0.37;;
31438;SDS011;18062;48.872;9.220;2023-02-28T02:04:18;0.37;;;0.37;;
31438;SDS011;18062;48.872;9.220;2023-02-28T02:06:46;0.60;;;0.60;;
31438;SDS011;18062;48.872;9.220;2023-02-28T02:09:13;0.20;;;0.20;;
31438;SDS011;18062;48.872;9.220;2023-02-28T02:11:39;0.20;;;0.20;;
31438;SDS011;18062;48.872;9.220;2023-02-28T02:42:14;0.60;;;0.40;;
31438;SDS011;18062;48.872;9.220;2023-02-28T02:44:46;0.27;;;0.27;;
31438;SDS011;18062;48.872;9.220;2023-02-28T02:47:15;0.40;;;0.40;;
31438;SDS011;18062;48.872;9.220;2023-02-28T02:49:43;0.20;;;0.20;;
31438;SDS011;18062;48.872;9.220;2023-02-28T02:52:12;0.47;;;0.47;;
31438;SDS011;18062;48.872;9.220;2023-02-28T02:54:43;0.30;;;0.30;;
31438;SDS011;18062;48.872;9.220;2023-02-28T02:57:15;0.30;;;0.30;;
31438;SDS011;18062;48.872;9.220;2023-02-28T02:59:43;0.40;;;0.40;;
31438;SDS011;18062;48.872;9.220;2023-02-28T03:02:11;0.10;;;0.10;;
31438;SDS011;18062;48.872;9.220;2023-02-28T03:04:40;0.20;;;0.20;;
31438;SDS011;18062;48.872;9.220;2023-02-28T03:07:08;0.27;;;0.27;;
31438;SDS011;18062;48.872;9.220;2023-02-28T03:09:34;2.60;;;0.90;;
31438;SDS011;18062;48.872;9.220;2023-02-28T03:12:03;0.47;;;0.47;;
31438;SDS011;18062;48.872;9.220;2023-02-28T03:17:21;0.20;;;0.20;;
31438;SDS011;18062;48.872;9.220;2023-02-28T03:27:30;0.30;;;0.30;;
31438;SDS011;18062;48.872;9.220;2023-02-28T03:30:06;0.50;;;0.50;;
31438;SDS011;18062;48.872;9.220;2023-02-28T03:32:36;0.53;;;0.40;;
31438;SDS011;18062;48.872;9.220;2023-02-28T03:37:37;0.67;;;0.67;;
31438;SDS011;18062;48.872;9.220;2023-02-28T03:40:08;0.40;;;0.40;;
31438;SDS011;18062;48.872;9.220;2023-02-28T03:42:36;0.40;;;0.40;;
31438;SDS011;18062;48.872;9.220;2023-02-28T03:45:04;0.33;;;0.33;;
31438;SDS011;18062;48.872;9.220;2023-02-28T03:47:35;0.20;;;0.20;;
31438;SDS011;18062;48.872;9.220;2023-02-28T03:50:05;0.37;;;0.37;;
31438;SDS011;18062;48.872;9.220;2023-02-28T03:52:37;0.30;;;0.30;;
31438;SDS011;18062;48.872;9.220;2023-02-28T03:55:05;4.80;;;0.80;;
31438;SDS011;18062;48.872;9.220;2023-02-28T04:00:36;0.27;;;0.27;;
31438;SDS011;18062;48.872;9.220;2023-02-28T04:03:03;0.60;;;0.60;;
31438;SDS011;18062;48.872;9.220;2023-02-28T04:05:30;0.60;;;0.60;;
31438;SDS011;18062;48.872;9.220;2023-02-28T04:08:06;0.37;;;0.37;;
31438;SDS011;18062;48.872;9.220;2023-02-28T04:10:32;0.73;;;0.73;;
31438;SDS011;18062;48.872;9.220;2023-02-28T04:12:58;0.30;;;0.30;;
31438;SDS011;18062;48.872;9.220;2023-02-28T04:15:24;0.60;;;0.50;;
31438;SDS011;18062;48.872;9.220;2023-02-28T04:17:52;0.67;;;0.67;;
31438;SDS011;18062;48.872;9.220;2023-02-28T04:20:18;0.30;;;0.30;;
31438;SDS011;18062;48.872;9.220;2023-02-28T04:22:44;0.40;;;0.40;;
31438;SDS011;18062;48.872;9.220;2023-02-28T04:25:10;0.40;;;0.40;;
31438;SDS011;18062;48.872;9.220;2023-02-28T04:27:36;0.80;;;0.80;;
31438;SDS011;18062;48.872;9.220;2023-02-28T04:30:02;0.80;;;0.70;;
31438;SDS011;18062;48.872;9.220;2023-02-28T04:32:28;2.67;;;0.90;;
31438;SDS011;18062;48.872;9.220;2023-02-28T04:34:54;0.53;;;0.53;;
31438;SDS011;18062;48.872;9.220;2023-02-28T04:37:20;4.17;;;0.80;;
31438;SDS011;18062;48.872;9.220;2023-02-28T04:39:52;0.53;;;0.53;;
31438;SDS011;18062;48.872;9.220;2023-02-28T04:42:18;0.83;;;0.83;;
31438;SDS011;18062;48.872;9.220;2023-02-28T04:44:44;0.30;;;0.30;;
31438;SDS011;18062;48.872;9.220;2023-02-28T04:47:10;3.07;;;1.37;;
31438;SDS011;18062;48.872;9.220;2023-02-28T04:49:36;0.60;;;0.50;;
31438;SDS011;18062;48.872;9.220;2023-02-28T04:52:03;0.30;;;0.30;;
31438;SDS011;18062;48.872;9.220;2023-02-28T04:54:29;1.83;;;1.17;;
31438;SDS011;18062;48.872;9.220;2023-02-28T04:56:55;0.57;;;0.57;;
31438;SDS011;18062;48.872;9.220;2023-02-28T04:59:22;0.60;;;0.60;;
31438;SDS011;18062;48.872;9.220;2023-02-28T05:01:48;0.80;;;0.80;;
31438;SDS011;18062;48.872;9.220;2023-02-28T05:04:15;0.83;;;0.83;;
31438;SDS011;18062;48.872;9.220;2023-02-28T05:06:41;0.60;;;0.60;;
31438;SDS011;18062;48.872;9.220;2023-02-28T05:09:07;0.30;;;0.30;;
31438;SDS011;18062;48.872;9.220;2023-02-28T05:11:33;0.50;;;0.50;;
31438;SDS011;18062;48.872;9.220;2023-02-28T05:14:06;1.03;;;0.63;;
31438;SDS011;18062;48.872;9.220;2023-02-28T05:16:32;0.53;;;0.53;;
31438;SDS011;18062;48.872;9.220;2023-02-28T05:18:59;0.60;;;0.60;;
31438;SDS011;18062;48.872;9.220;2023-02-28T05:23:51;0.43;;;0.43;;
31438;SDS011;18062;48.872;9.220;2023-02-28T05:26:17;0.40;;;0.40;;
31438;SDS011;18062;48.872;9.220;2023-02-28T05:28:43;0.47;;;0.43;;
31438;SDS011;18062;48.872;9.220;2023-02-28T05:31:12;0.20;;;0.20;;
31438;SDS011;18062;48.872;9.220;2023-02-28T05:33:38;0.87;;;0.73;;
31438;SDS011;18062;48.872;9.220;2023-02-28T05:36:04;0.43;;;0.43;;
31438;SDS011;18062;48.872;9.220;2023-02-28T05:38:31;0.53;;;0.53;;
31438;SDS011;18062;48.872;9.220;2023-02-28T05:40:57;0.30;;;0.30;;
31438;SDS011;18062;48.872;9.220;2023-02-28T05:43:23;1.10;;;1.00;;
31438;SDS011;18062;48.872;9.220;2023-02-28T05:45:49;6.53;;;0.87;;
31438;SDS011;18062;48.872;9.220;2023-02-28T05:48:15;0.60;;;0.60;;
31438;SDS011;18062;48.872;9.220;2023-02-28T05:50:43;0.73;;;0.73;;
31438;SDS011;18062;48.872;9.220;2023-02-28T05:53:11;0.33;;;0.33;;
31438;SDS011;18062;48.872;9.220;2023-02-28T05:55:37;0.40;;;0.40;;
31438;SDS011;18062;48.872;9.220;2023-02-28T05:58:03;0.63;;;0.47;;
31438;SDS011;18062;48.872;9.220;2023-02-28T06:00:29;0.70;;;0.53;;
31438;SDS011;18062;48.872;9.220;2023-02-28T06:02:55;0.87;;;0.87;;
31438;SDS011;18062;48.872;9.220;2023-02-28T06:05:23;0.87;;;0.87;;
31438;SDS011;18062;48.872;9.220;2023-02-28T06:07:49;0.60;;;0.60;;
31438;SDS011;18062;48.872;9.220;2023-02-28T06:10:15;0.60;;;0.60;;
31438;SDS011;18062;48.872;9.220;2023-02-28T06:12:41;0.60;;;0.60;;
31438;SDS011;18062;48.872;9.220;2023-02-28T06:15:11;2.37;;;0.80;;
31438;SDS011;18062;48.872;9.220;2023-02-28T06:17:37;0.47;;;0.40;;
31438;SDS011;18062;48.872;9.220;2023-02-28T06:20:04;1.83;;;0.73;;
31438;SDS011;18062;48.872;9.220;2023-02-28T06:22:30;0.67;;;0.67;;
31438;SDS011;18062;48.872;9.220;2023-02-28T06:24:56;1.50;;;1.30;;
31438;SDS011;18062;48.872;9.220;2023-02-28T06:27:22;0.90;;;0.90;;
31438;SDS011;18062;48.872;9.220;2023-02-28T06:29:49;0.50;;;0.50;;
31438;SDS011;18062;48.872;9.220;2023-02-28T06:32:15;0.50;;;0.50;;
31438;SDS011;18062;48.872;9.220;2023-02-28T06:34:41;0.50;;;0.50;;
31438;SDS011;18062;48.872;9.220;2023-02-28T06:37:07;0.43;;;0.43;;
31438;SDS011;18062;48.872;9.220;2023-02-28T06:39:33;0.63;;;0.63;;
31438;SDS011;18062;48.872;9.220;2023-02-28T06:41:59;0.63;;;0.47;;
31438;SDS011;18062;48.872;9.220;2023-02-28T06:44:25;0.73;;;0.73;;
31438;SDS011;18062;48.872;9.220;2023-02-28T06:46:51;1.40;;;1.10;;
31438;SDS011;18062;48.872;9.220;2023-02-28T06:49:17;0.73;;;0.73;;
31438;SDS011;18062;48.872;9.220;2023-02-28T06:51:43;0.63;;;0.63;;
31438;SDS011;18062;48.872;9.220;2023-02-28T06:54:10;0.53;;;0.53;;
31438;SDS011;18062;48.872;9.220;2023-02-28T06:56:36;0.67;;;0.67;;
31438;SDS011;18062;48.872;9.220;2023-02-28T06:59:03;0.83;;;0.80;;
31438;SDS011;18062;48.872;9.220;2023-02-28T07:01:29;1.17;;;0.70;;
31438;SDS011;18062;48.872;9.220;2023-02-28T07:03:57;0.60;;;0.60;;
31438;SDS011;18062;48.872;9.220;2023-02-28T07:06:25;0.70;;;0.70;;
31438;SDS011;18062;48.872;9.220;2023-02-28T07:08:51;2.20;;;1.20;;
31438;SDS011;18062;48.872;9.220;2023-02-28T07:11:18;1.77;;;0.50;;
31438;SDS011;18062;48.872;9.220;2023-02-28T07:13:44;0.50;;;0.50;;
31438;SDS011;18062;48.872;9.220;2023-02-28T07:16:12;0.60;;;0.60;;
31438;SDS011;18062;48.872;9.220;2023-02-28T07:18:38;0.70;;;0.70;;
31438;SDS011;18062;48.872;9.220;2023-02-28T07:21:05;0.50;;;0.50;;
31438;SDS011;18062;48.872;9.220;2023-02-28T07:23:31;0.70;;;0.70;;
31438;SDS011;18062;48.872;9.220;2023-02-28T07:25:57;0.40;;;0.40;;
31438;SDS011;18062;48.872;9.220;2023-02-28T07:28:24;1.33;;;0.80;;
31438;SDS011;18062;48.872;9.220;2023-02-28T07:30:50;2.63;;;0.50;;
31438;SDS011;18062;48.872;9.220;2023-02-28T07:33:16;1.93;;;1.70;;
31438;SDS011;18062;48.872;9.220;2023-02-28T07:35:43;0.83;;;0.73;;
31438;SDS011;18062;48.872;9.220;2023-02-28T07:38:09;0.87;;;0.87;;
31438;SDS011;18062;48.872;9.220;2023-02-28T07:40:35;0.53;;;0.53;;
31438;SDS011;18062;48.872;9.220;2023-02-28T07:43:02;1.30;;;1.20;;
31438;SDS011;18062;48.872;9.220;2023-02-28T07:45:28;6.23;;;1.23;;
31438;SDS011;18062;48.872;9.220;2023-02-28T07:47:54;0.40;;;0.40;;
31438;SDS011;18062;48.872;9.220;2023-02-28T07:50:20;0.87;;;0.87;;
31438;SDS011;18062;48.872;9.220;2023-02-28T07:52:47;1.70;;;1.00;;
31438;SDS011;18062;48.872;9.220;2023-02-28T07:55:13;1.10;;;0.90;;
31438;SDS011;18062;48.872;9.220;2023-02-28T07:57:39;1.10;;;0.93;;
31438;SDS011;18062;48.872;9.220;2023-02-28T08:00:06;0.73;;;0.73;;
31438;SDS011;18062;48.872;9.220;2023-02-28T08:02:34;0.50;;;0.50;;
31438;SDS011;18062;48.872;9.220;2023-02-28T08:05:00;0.63;;;0.63;;
31438;SDS011;18062;48.872;9.220;2023-02-28T08:07:26;0.77;;;0.77;;
31438;SDS011;18062;48.872;9.220;2023-02-28T08:09:52;0.67;;;0.67;;
31438;SDS011;18062;48.872;9.220;2023-02-28T08:12:18;1.20;;;1.07;;
31438;SDS011;18062;48.872;9.220;2023-02-28T08:14:44;0.90;;;0.90;;
31438;SDS011;18062;48.872;9.220;2023-02-28T08:17:11;0.90;;;0.60;;
31438;SDS011;18062;48.872;9.220;2023-02-28T08:19:37;1.03;;;0.90;;
31438;SDS011;18062;48.872;9.220;2023-02-28T08:22:03;0.60;;;0.60;;
31438;SDS011;18062;48.872;9.220;2023-02-28T08:24:29;0.60;;;0.60;;
31438;SDS011;18062;48.872;9.220;2023-02-28T08:26:55;0.73;;;0.63;;
31438;SDS011;18062;48.872;9.220;2023-02-28T08:29:21;0.40;;;0.40;;
31438;SDS011;18062;48.872;9.220;2023-02-28T08:31:48;1.13;;;0.83;;
31438;SDS011;18062;48.872;9.220;2023-02-28T08:34:14;1.70;;;1.60;;
31438;SDS011;18062;48.872;9.220;2023-02-28T08:36:41;0.97;;;0.87;;
31438;SDS011;18062;48.872;9.220;2023-02-28T08:39:09;0.47;;;0.47;;
31438;SDS011;18062;48.872;9.220;2023-02-28T08:41:35;2.57;;;1.53;;
31438;SDS011;18062;48.872;9.220;2023-02-28T08:44:01;1.13;;;1.03;;
31438;SDS011;18062;48.872;9.220;2023-02-28T08:46:27;1.27;;;1.00;;
31438;SDS011;18062;48.872;9.220;2023-02-28T08:48:54;0.40;;;0.40;;
31438;SDS011;18062;48.872;9.220;2023-02-28T08:51:21;2.60;;;1.27;;
31438;SDS011;18062;48.872;9.220;2023-02-28T08:53:51;0.90;;;0.83;;
31438;SDS011;18062;48.872;9.220;2023-02-28T08:56:18;5.73;;;1.63;;
31438;SDS011;18062;48.872;9.220;2023-02-28T08:58:45;5.73;;;1.20;;
31438;SDS011;18062;48.872;9.220;2023-02-28T09:01:18;1.20;;;1.10;;
31438;SDS011;18062;48.872;9.220;2023-02-28T09:03:45;3.73;;;1.50;;
31438;SDS011;18062;48.872;9.220;2023-02-28T09:06:12;1.50;;;1.33;;
31438;SDS011;18062;48.872;9.220;2023-02-28T09:08:38;1.33;;;1.20;;
31438;SDS011;18062;48.872;9.220;2023-02-28T09:11:04;3.30;;;1.73;;
31438;SDS011;18062;48.872;9.220;2023-02-28T09:13:31;0.87;;;0.87;;
31438;SDS011;18062;48.872;9.220;2023-02-28T09:16:01;1.10;;;0.90;;
31438;SDS011;18062;48.872;9.220;2023-02-28T09:18:28;1.87;;;1.17;;
31438;SDS011;18062;48.872;9.220;2023-02-28T09:20:54;1.83;;;1.10;;
31438;SDS011;18062;48.872;9.220;2023-02-28T09:23:20;1.27;;;0.90;;
31438;SDS011;18062;48.872;9.220;2023-02-28T09:25:47;1.87;;;0.90;;
31438;SDS011;18062;48.872;9.220;2023-02-28T09:28:13;2.60;;;1.13;;
31438;SDS011;18062;48.872;9.220;2023-02-28T09:30:45;1.20;;;1.10;;
31438;SDS011;18062;48.872;9.220;2023-02-28T09:33:12;1.40;;;0.97;;
31438;SDS011;18062;48.872;9.220;2023-02-28T09:35:38;1.37;;;1.27;;
31438;SDS011;18062;48.872;9.220;2023-02-28T09:38:04;1.13;;;0.87;;
31438;SDS011;18062;48.872;9.220;2023-02-28T09:40:34;1.00;;;0.93;;
31438;SDS011;18062;48.872;9.220;2023-02-28T09:43:01;1.50;;;1.03;;
31438;SDS011;18062;48.872;9.220;2023-02-28T09:47:58;2.10;;;1.37;;
31438;SDS011;18062;48.872;9.220;2023-02-28T09:50:41;0.90;;;0.87;;
31438;SDS011;18062;48.872;9.220;2023-02-28T09:53:18;1.60;;;1.20;;
31438;SDS011;18062;48.872;9.220;2023-02-28T09:55:47;3.10;;;1.17;;
31438;SDS011;18062;48.872;9.220;2023-02-28T09:58:19;1.50;;;1.10;;
31438;SDS011;18062;48.872;9.220;2023-02-28T10:00:46;1.30;;;1.10;;
31438;SDS011;18062;48.872;9.220;2023-02-28T10:05:54;1.40;;;1.30;;
31438;SDS011;18062;48.872;9.220;2023-02-28T10:08:27;1.53;;;1.13;;
31438;SDS011;18062;48.872;9.220;2023-02-28T10:10:55;0.93;;;0.73;;
31438;SDS011;18062;48.872;9.220;2023-02-28T10:15:49;1.60;;;1.30;;
31438;SDS011;18062;48.872;9.220;2023-02-28T10:18:16;1.90;;;1.40;;
31438;SDS011;18062;48.872;9.220;2023-02-28T10:20:45;3.00;;;1.30;;
31438;SDS011;18062;48.872;9.220;2023-02-28T10:25:45;1.70;;;1.60;;
31438;SDS011;18062;48.872;9.220;2023-02-28T10:28:16;2.10;;;1.67;;
31438;SDS011;18062;48.872;9.220;2023-02-28T10:30:47;1.47;;;1.37;;
31438;SDS011;18062;48.872;9.220;2023-02-28T10:33:33;3.73;;;1.63;;
31438;SDS011;18062;48.872;9.220;2023-02-28T10:35:59;2.77;;;1.40;;
31438;SDS011;18062;48.872;9.220;2023-02-28T10:38:27;1.40;;;1.30;;
31438;SDS011;18062;48.872;9.220;2023-02-28T10:41:03;2.00;;;1.80;;
31438;SDS011;18062;48.872;9.220;2023-02-28T10:43:30;1.87;;;1.40;;
31438;SDS011;18062;48.872;9.220;2023-02-28T10:49:16;2.20;;;1.40;;
31438;SDS011;18062;48.872;9.220;2023-02-28T10:55:18;1.57;;;1.07;;
31438;SDS011;18062;48.872;9.220;2023-02-28T10:57:45;2.73;;;1.87;;
31438;SDS011;18062;48.872;9.220;2023-02-28T11:00:16;2.80;;;2.03;;
31438;SDS011;18062;48.872;9.220;2023-02-28T11:02:44;1.63;;;1.40;;
31438;SDS011;18062;48.872;9.220;2023-02-28T11:05:24;2.93;;;1.93;;
31438;SDS011;18062;48.872;9.220;2023-02-28T11:07:52;1.87;;;1.50;;
31438;SDS011;18062;48.872;9.220;2023-02-28T11:10:21;2.20;;;1.77;;
31438;SDS011;18062;48.872;9.220;2023-02-28T11:12:50;2.87;;;2.00;;
31438;SDS011;18062;48.872;9.220;2023-02-28T11:15:24;3.10;;;2.23;;
31438;SDS011;18062;48.872;9.220;2023-02-28T11:17:54;2.63;;;1.83;;
31438;SDS011;18062;48.872;9.220;2023-02-28T11:20:21;2.93;;;2.33;;
31438;SDS011;18062;48.872;9.220;2023-02-28T11:22:48;3.63;;;1.93;;
31438;SDS011;18062;48.872;9.220;2023-02-28T11:25:19;5.60;;;2.37;;
31438;SDS011;18062;48.872;9.220;2023-02-28T11:27:49;4.07;;;2.60;;
31438;SDS011;18062;48.872;9.220;2023-02-28T11:30:26;2.97;;;2.10;;
31438;SDS011;18062;48.872;9.220;2023-02-28T11:32:52;3.27;;;2.70;;
31438;SDS011;18062;48.872;9.220;2023-02-28T11:35:26;3.40;;;2.60;;
31438;SDS011;18062;48.872;9.220;2023-02-28T11:37:54;3.50;;;2.70;;
31438;SDS011;18062;48.872;9.220;2023-02-28T11:40:27;3.33;;;2.80;;
31438;SDS011;18062;48.872;9.220;2023-02-28T11:43:41;4.30;;;2.20;;
31438;SDS011;18062;48.872;9.220;2023-02-28T11:45:46;3.57;;;2.60;;
31438;SDS011;18062;48.872;9.220;2023-02-28T11:53:35;4.33;;;2.90;;
31438;SDS011;18062;48.872;9.220;2023-02-28T12:03:54;3.43;;;2.90;;
31438;SDS011;18062;48.872;9.220;2023-02-28T12:09:27;4.23;;;2.77;;
31438;SDS011;18062;48.872;9.220;2023-02-28T12:11:57;3.17;;;2.10;;
31438;SDS011;18062;48.872;9.220;2023-02-28T12:22:24;3.67;;;2.67;;
31438;SDS011;18062;48.872;9.220;2023-02-28T12:27:28;3.85;;;2.90;;
31438;SDS011;18062;48.872;9.220;2023-02-28T12:29:58;2.83;;;2.53;;
31438;SDS011;18062;48.872;9.220;2023-02-28T12:32:38;2.63;;;2.42;;
31438;SDS011;18062;48.872;9.220;2023-02-28T12:35:12;3.22;;;2.53;;
31438;SDS011;18062;48.872;9.220;2023-02-28T12:37:40;2.58;;;2.38;;
31438;SDS011;18062;48.872;9.220;2023-02-28T12:40:15;3.38;;;2.83;;
31438;SDS011;18062;48.872;9.220;2023-02-28T12:42:44;3.08;;;2.80;;
31438;SDS011;18062;48.872;9.220;2023-02-28T12:45:19;3.85;;;2.85;;
31438;SDS011;18062;48.872;9.220;2023-02-28T12:47:48;3.17;;;2.70;;
31438;SDS011;18062;48.872;9.220;2023-02-28T12:50:16;3.05;;;2.78;;
31438;SDS011;18062;48.872;9.220;2023-02-28T12:52:53;2.53;;;2.33;;
31438;SDS011;18062;48.872;9.220;2023-02-28T12:58:03;3.70;;;2.78;;
31438;SDS011;18062;48.872;9.220;2023-02-28T13:00:35;3.13;;;2.83;;
31438;SDS011;18062;48.872;9.220;2023-02-28T13:03:44;3.72;;;2.75;;
31438;SDS011;18062;48.872;9.220;2023-02-28T13:06:16;2.72;;;2.38;;
31438;SDS011;18062;48.872;9.220;2023-02-28T13:11:03;3.30;;;2.40;;
31438;SDS011;18062;48.872;9.220;2023-02-28T13:13:29;3.35;;;2.65;;
31438;SDS011;18062;48.872;9.220;2023-02-28T13:18:44;2.83;;;2.50;;
31438;SDS011;18062;48.872;9.220;2023-02-28T13:21:24;2.92;;;2.40;;
31438;SDS011;18062;48.872;9.220;2023-02-28T13:29:02;3.47;;;3.00;;
31438;SDS011;18062;48.872;9.220;2023-02-28T13:31:29;3.10;;;2.75;;
31438;SDS011;18062;48.872;9.220;2023-02-28T13:34:05;2.90;;;2.60;;
31438;SDS011;18062;48.872;9.220;2023-02-28T13:36:32;3.73;;;2.53;;
31438;SDS011;18062;48.872;9.220;2023-02-28T13:39:01;2.90;;;2.57;;
31438;SDS011;18062;48.872;9.220;2023-02-28T13:46:30;3.72;;;2.65;;
31438;SDS011;18062;48.872;9.220;2023-02-28T13:49:17;3.60;;;2.83;;
31438;SDS011;18062;48.872;9.220;2023-02-28T13:51:44;3.28;;;2.97;;
31438;SDS011;18062;48.872;9.220;2023-02-28T13:57:12;3.25;;;2.55;;
31438;SDS011;18062;48.872;9.220;2023-02-28T14:07:01;3.15;;;2.50;;
31438;SDS011;18062;48.872;9.220;2023-02-28T14:09:34;3.60;;;2.83;;
31438;SDS011;18062;48.872;9.220;2023-02-28T14:17:15;3.40;;;2.53;;
31438;SDS011;18062;48.872;9.220;2023-02-28T14:19:43;3.38;;;2.97;;
31438;SDS011;18062;48.872;9.220;2023-02-28T14:22:37;3.58;;;2.78;;
31438;SDS011;18062;48.872;9.220;2023-02-28T14:25:22;3.28;;;2.95;;
31438;SDS011;18062;48.872;9.220;2023-02-28T14:28:05;3.00;;;2.58;;
31438;SDS011;18062;48.872;9.220;2023-02-28T14:36:18;3.72;;;2.60;;
31438;SDS011;18062;48.872;9.220;2023-02-28T14:41:23;3.80;;;2.70;;
31438;SDS011;18062;48.872;9.220;2023-02-28T14:43:50;3.17;;;2.75;;
31438;SDS011;18062;48.872;9.220;2023-02-28T14:46:16;2.88;;;2.60;;
31438;SDS011;18062;48.872;9.220;2023-02-28T14:48:47;2.40;;;2.20;;
31438;SDS011;18062;48.872;9.220;2023-02-28T14:51:18;2.65;;;2.45;;
31438;SDS011;18062;48.872;9.220;2023-02-28T14:53:44;2.70;;;2.45;;
31438;SDS011;18062;48.872;9.220;2023-02-28T14:56:21;4.60;;;2.78;;
31438;SDS011;18062;48.872;9.220;2023-02-28T14:58:52;4.33;;;3.27;;
31438;SDS011;18062;48.872;9.220;2023-02-28T15:01:19;3.10;;;2.80;;
31438;SDS011;18062;48.872;9.220;2023-02-28T15:03:46;4.10;;;3.10;;
31438;SDS011;18062;48.872;9.220;2023-02-28T15:06:13;3.53;;;2.93;;
31438;SDS011;18062;48.872;9.220;2023-02-28T15:08:42;3.20;;;2.80;;
31438;SDS011;18062;48.872;9.220;2023-02-28T15:11:08;3.10;;;2.57;;
31438;SDS011;18062;48.872;9.220;2023-02-28T15:13:53;4.40;;;2.80;;
31438;SDS011;18062;48.872;9.220;2023-02-28T15:16:26;3.10;;;2.80;;
31438;SDS011;18062;48.872;9.220;2023-02-28T15:18:56;3.80;;;2.83;;
31438;SDS011;18062;48.872;9.220;2023-02-28T15:21:25;2.90;;;2.57;;
31438;SDS011;18062;48.872;9.220;2023-02-28T15:23:56;2.90;;;2.27;;
31438;SDS011;18062;48.872;9.220;2023-02-28T15:26:24;4.17;;;2.60;;
31438;SDS011;18062;48.872;9.220;2023-02-28T15:28:54;2.17;;;1.93;;
31438;SDS011;18062;48.872;9.220;2023-02-28T15:31:32;1.93;;;1.73;;
31438;SDS011;18062;48.872;9.220;2023-02-28T15:34:02;2.27;;;2.07;;
31438;SDS011;18062;48.872;9.220;2023-02-28T15:36:30;1.90;;;1.70;;
31438;SDS011;18062;48.872;9.220;2023-02-28T15:38:58;1.73;;;1.57;;
31438;SDS011;18062;48.872;9.220;2023-02-28T15:41:45;1.77;;;1.60;;
31438;SDS011;18062;48.872;9.220;2023-02-28T15:46:55;2.17;;;1.73;;
31438;SDS011;18062;48.872;9.220;2023-02-28T15:49:22;2.73;;;1.63;;
31438;SDS011;18062;48.872;9.220;2023-02-28T15:51:50;2.90;;;1.83;;
31438;SDS011;18062;48.872;9.220;2023-02-28T15:54:38;2.10;;;1.60;;
31438;SDS011;18062;48.872;9.220;2023-02-28T15:57:06;2.60;;;1.57;;
31438;SDS011;18062;48.872;9.220;2023-02-28T15:59:33;2.97;;;1.90;;
31438;SDS011;18062;48.872;9.220;2023-02-28T16:04:30;2.20;;;1.50;;
31438;SDS011;18062;48.872;9.220;2023-02-28T16:09:25;1.80;;;1.40;;
31438;SDS011;18062;48.872;9.220;2023-02-28T16:11:53;2.57;;;1.80;;
31438;SDS011;18062;48.872;9.220;2023-02-28T16:14:20;3.07;;;2.33;;
31438;SDS011;18062;48.872;9.220;2023-02-28T16:16:49;3.17;;;1.80;;
31438;SDS011;18062;48.872;9.220;2023-02-28T16:19:16;4.23;;;1.60;;
31438;SDS011;18062;48.872;9.220;2023-02-28T16:21:42;1.37;;;1.17;;
31438;SDS011;18062;48.872;9.220;2023-02-28T16:24:08;3.73;;;1.80;;
31438;SDS011;18062;48.872;9.220;2023-02-28T16:26:34;1.67;;;1.10;;
31438;SDS011;18062;48.872;9.220;2023-02-28T16:29:02;1.93;;;1.33;;
31438;SDS011;18062;48.872;9.220;2023-02-28T16:31:28;1.87;;;1.50;;
31438;SDS011;18062;48.872;9.220;2023-02-28T16:33:54;2.50;;;1.83;;
31438;SDS011;18062;48.872;9.220;2023-02-28T16:36:22;1.90;;;1.50;;
31438;SDS011;18062;48.872;9.220;2023-02-28T16:38:53;1.80;;;1.33;;
31438;SDS011;18062;48.872;9.220;2023-02-28T16:41:20;2.80;;;1.40;;
31438;SDS011;18062;48.872;9.220;2023-02-28T16:43:48;1.53;;;1.20;;
31438;SDS011;18062;48.872;9.220;2023-02-28T16:46:15;1.20;;;1.00;;
31438;SDS011;18062;48.872;9.220;2023-02-28T16:48:41;2.10;;;1.63;;
31438;SDS011;18062;48.872;9.220;2023-02-28T16:51:14;3.13;;;1.90;;
31438;SDS011;18062;48.872;9.220;2023-02-28T16:53:40;3.60;;;2.10;;
31438;SDS011;18062;48.872;9.220;2023-02-28T16:56:06;2.30;;;1.53;;
31438;SDS011;18062;48.872;9.220;2023-02-28T16:58:37;1.57;;;1.23;;
31438;SDS011;18062;48.872;9.220;2023-02-28T17:01:04;2.97;;;2.07;;
31438;SDS011;18062;48.872;9.220;2023-02-28T17:03:30;0.80;;;0.77;;
31438;SDS011;18062;48.872;9.220;2023-02-28T17:05:56;4.03;;;1.43;;
31438;SDS011;18062;48.872;9.220;2023-02-28T17:08:22;2.17;;;1.50;;
31438;SDS011;18062;48.872;9.220;2023-02-28T17:10:48;2.80;;;2.00;;
31438;SDS011;18062;48.872;9.220;2023-02-28T17:13:14;2.83;;;1.27;;
31438;SDS011;18062;48.872;9.220;2023-02-28T17:15:40;2.50;;;1.40;;